Time;durP1;ratioP1;P1;durP2;ratioP2;P2;SDS_P1;SDS_P2;PMS_P1;PMS_P2;Temp;Humidity;BMP_temperature;BMP_pressure;BME280_temperature;BME280_humidity;BME280_pressure;Samples;Min_cycle;Max_cycle;Signal;HPM_P1;HPM_P2
2022/08/04 00:00:09;;;;;;;16.00;8.40;;;20.10;99.90;;;;;;4934845;29;20052;-69
2022/08/04 00:02:44;;;;;;;21.88;10.18;;;20.10;99.90;;;;;;4932716;29;20051;-70
2022/08/04 00:05:38;;;;;;;18.73;9.90;;;20.00;99.90;;;;;;4932390;29;20075;-70
2022/08/04 00:08:10;;;;;;;17.33;11.43;;;20.10;99.90;;;;;;4883163;29;20089;-70
2022/08/04 00:10:38;;;;;;;20.58;11.88;;;20.20;99.90;;;;;;4940091;29;20138;-70
2022/08/04 00:13:06;;;;;;;24.92;12.75;;;20.20;99.90;;;;;;4942171;29;20568;-70
2022/08/04 00:15:33;;;;;;;15.80;11.93;;;20.20;99.90;;;;;;4932463;29;20052;-70
2022/08/04 00:18:03;;;;;;;23.70;11.38;;;20.30;99.90;;;;;;4923862;29;20035;-70
2022/08/04 00:20:32;;;;;;;22.48;11.38;;;20.30;99.90;;;;;;4934864;29;20083;-70
2022/08/04 00:22:59;;;;;;;20.73;11.77;;;20.30;99.90;;;;;;4936438;29;20489;-70
2022/08/04 00:25:25;;;;;;;19.00;12.10;;;20.30;99.90;;;;;;4936738;29;20048;-70
2022/08/04 00:27:51;;;;;;;23.60;11.82;;;20.30;99.90;;;;;;4934687;29;20066;-70
2022/08/04 00:30:17;;;;;;;21.10;12.35;;;20.30;99.90;;;;;;4921549;29;20397;-70
2022/08/04 00:32:43;;;;;;;21.73;12.77;;;20.30;99.90;;;;;;4940549;29;20039;-70
2022/08/04 00:35:11;;;;;;;14.32;11.43;;;20.30;99.90;;;;;;4937597;29;20094;-70
2022/08/04 00:37:39;;;;;;;20.50;10.85;;;20.30;99.90;;;;;;4932858;29;20602;-70
2022/08/04 00:40:40;;;;;;;22.65;12.98;;;20.30;99.90;;;;;;4937848;29;20050;-70
2022/08/04 00:43:32;;;;;;;21.63;11.55;;;20.20;99.90;;;;;;4899176;29;20425;-69
2022/08/04 00:46:31;;;;;;;19.55;11.57;;;20.20;99.90;;;;;;4927126;29;20114;-70
2022/08/04 00:49:30;;;;;;;17.50;12.00;;;20.20;99.90;;;;;;4931357;29;20056;-70
2022/08/04 00:52:13;;;;;;;28.42;11.55;;;20.20;99.90;;;;;;4918321;29;20512;-70
2022/08/04 00:55:08;;;;;;;19.92;11.50;;;20.20;99.90;;;;;;4932775;29;20404;-70
2022/08/04 00:58:13;;;;;;;19.80;11.38;;;20.20;99.90;;;;;;4932465;29;20126;-70
2022/08/04 01:00:59;;;;;;;21.58;11.85;;;20.20;99.90;;;;;;4934838;29;20051;-70
2022/08/04 01:03:34;;;;;;;18.02;12.07;;;20.30;99.90;;;;;;4932597;29;20051;-70
2022/08/04 01:06:03;;;;;;;23.92;11.65;;;20.30;99.90;;;;;;4934156;29;20090;-70
2022/08/04 01:08:48;;;;;;;21.48;11.30;;;20.30;99.90;;;;;;4938522;29;20054;-70
2022/08/04 01:11:41;;;;;;;16.25;11.07;;;20.30;99.90;;;;;;4930719;29;20048;-70
2022/08/04 01:14:14;;;;;;;28.52;12.52;;;20.20;99.90;;;;;;4930947;29;20105;-70
2022/08/04 01:16:50;;;;;;;20.75;12.25;;;20.20;99.90;;;;;;4912973;29;20625;-70
2022/08/04 01:19:51;;;;;;;21.98;12.38;;;20.20;99.90;;;;;;4932869;29;20453;-70
2022/08/04 01:22:31;;;;;;;17.90;11.75;;;20.20;99.90;;;;;;4915188;29;20043;-70
2022/08/04 01:25:28;;;;;;;21.27;12.43;;;20.10;99.90;;;;;;4933564;29;20058;-70
2022/08/04 01:28:35;;;;;;;22.45;11.45;;;20.10;99.90;;;;;;4931884;29;20344;-70
2022/08/04 01:31:31;;;;;;;15.10;10.23;;;20.00;99.90;;;;;;4913707;29;20055;-69
2022/08/04 01:33:59;;;;;;;15.45;12.30;;;19.90;99.90;;;;;;4914254;29;20497;-70
2022/08/04 01:36:26;;;;;;;23.63;11.40;;;19.80;99.90;;;;;;4930121;29;20055;-70
2022/08/04 01:38:53;;;;;;;15.77;12.87;;;19.70;99.90;;;;;;4915270;29;20122;-70
2022/08/04 01:41:20;;;;;;;19.45;12.50;;;19.60;99.90;;;;;;4918017;29;20055;-70
2022/08/04 01:43:46;;;;;;;20.65;11.70;;;19.50;99.90;;;;;;4913840;29;20047;-69
2022/08/04 01:46:14;;;;;;;20.48;13.07;;;19.40;99.90;;;;;;4930124;29;20067;-70
2022/08/04 01:48:43;;;;;;;;;;;19.40;99.90;;;;;;4914224;29;20720;-70
2022/08/04 01:51:09;;;;;;;21.35;12.27;;;19.30;99.90;;;;;;4901122;29;19977;-70
2022/08/04 01:53:38;;;;;;;20.30;12.50;;;19.30;99.90;;;;;;4930398;29;20066;-70
2022/08/04 01:56:06;;;;;;;18.58;13.20;;;19.20;99.90;;;;;;4919667;29;20492;-70
2022/08/04 01:58:33;;;;;;;21.35;12.45;;;19.10;99.90;;;;;;4937644;29;20055;-71
2022/08/04 02:01:08;;;;;;;19.90;12.93;;;19.10;99.90;;;;;;4935788;29;20103;-70
2022/08/04 02:03:36;;;;;;;16.58;10.50;;;19.10;99.90;;;;;;4914448;29;20056;-70
2022/08/04 02:06:19;;;;;;;23.65;11.77;;;19.10;99.90;;;;;;4932344;29;20039;-70
2022/08/04 02:08:48;;;;;;;22.63;11.43;;;19.10;99.90;;;;;;4932690;29;20459;-70
2022/08/04 02:11:15;;;;;;;18.75;11.43;;;19.10;99.90;;;;;;4934790;29;20044;-70
2022/08/04 02:13:52;;;;;;;14.65;12.32;;;19.10;99.90;;;;;;4927587;29;20044;-70
2022/08/04 02:16:32;;;;;;;18.02;10.70;;;19.20;99.90;;;;;;4930106;29;20180;-70
2022/08/04 02:19:01;;;;;;;19.05;11.00;;;19.10;99.90;;;;;;4931683;29;20044;-70
2022/08/04 02:21:28;;;;;;;18.65;11.02;;;19.10;99.90;;;;;;4915732;29;20083;-70
2022/08/04 02:24:00;;;;;;;24.65;11.85;;;19.10;99.90;;;;;;4897976;29;20052;-71
2022/08/04 02:26:28;;;;;;;19.90;11.05;;;19.10;99.90;;;;;;4938975;29;20523;-71
2022/08/04 02:29:15;;;;;;;18.80;12.13;;;19.00;99.90;;;;;;4937392;29;20059;-70
2022/08/04 02:31:52;;;;;;;19.33;14.00;;;19.00;99.90;;;;;;4933050;29;20043;-70
2022/08/04 02:34:24;;;;;;;16.10;12.40;;;19.00;99.90;;;;;;4924925;29;20531;-71
2022/08/04 02:36:51;;;;;;;23.75;14.18;;;18.90;99.90;;;;;;4932040;29;20090;-71
2022/08/04 02:39:19;;;;;;;22.03;14.33;;;19.00;99.90;;;;;;4929938;29;20107;-71
2022/08/04 02:41:47;;;;;;;22.40;14.43;;;18.90;99.90;;;;;;4914985;29;20056;-70
2022/08/04 02:44:22;;;;;;;21.98;13.63;;;19.00;99.90;;;;;;4932596;29;20047;-70
2022/08/04 02:46:50;;;;;;;20.88;13.73;;;18.90;99.90;;;;;;4918068;29;20126;-71
2022/08/04 02:49:18;;;;;;;21.38;14.50;;;18.80;99.90;;;;;;4933557;29;20083;-70
2022/08/04 02:51:53;;;;;;;30.17;15.07;;;18.80;99.90;;;;;;4900908;29;20052;-70
2022/08/04 02:54:26;;;;;;;17.98;14.00;;;18.80;99.90;;;;;;4922771;29;20044;-70
2022/08/04 02:56:54;;;;;;;27.05;14.48;;;18.80;99.90;;;;;;4911941;29;20505;-71
2022/08/04 02:59:24;;;;;;;17.77;13.32;;;18.80;99.90;;;;;;4930774;29;20061;-71
2022/08/04 03:01:53;;;;;;;25.67;15.15;;;18.70;99.90;;;;;;4910636;29;20108;-71
2022/08/04 03:04:41;;;;;;;17.90;14.48;;;18.70;99.90;;;;;;4930807;29;20052;-71
2022/08/04 03:07:22;;;;;;;31.50;14.35;;;18.60;99.90;;;;;;4910886;29;20468;-71
2022/08/04 03:10:12;;;;;;;38.40;15.32;;;18.60;99.90;;;;;;4929259;29;20126;-71
2022/08/04 03:13:06;;;;;;;24.00;14.15;;;18.60;99.90;;;;;;4930045;29;20100;-72
2022/08/04 03:15:34;;;;;;;20.88;13.25;;;18.60;99.90;;;;;;4913104;29;20142;-71
2022/08/04 03:18:14;;;;;;;19.30;14.52;;;18.60;99.90;;;;;;4929351;29;20044;-72
2022/08/04 03:20:50;;;;;;;17.73;13.25;;;18.60;99.90;;;;;;4930582;29;20086;-71
2022/08/04 03:23:50;;;;;;;17.88;13.02;;;18.60;99.90;;;;;;4925906;29;20054;-71
2022/08/04 03:26:18;;;;;;;22.95;13.10;;;18.60;99.90;;;;;;4927682;29;20656;-71
2022/08/04 03:28:59;;;;;;;19.67;13.18;;;18.60;99.90;;;;;;4932244;29;20067;-71
2022/08/04 03:32:01;;;;;;;18.75;12.93;;;18.60;99.90;;;;;;4929357;29;20055;-72
2022/08/04 03:34:51;;;;;;;24.20;13.15;;;18.60;99.90;;;;;;4932745;29;20062;-71
2022/08/04 03:37:37;;;;;;;18.88;13.07;;;18.50;99.90;;;;;;4915829;29;20054;-71
2022/08/04 03:40:29;;;;;;;16.92;12.27;;;18.60;99.90;;;;;;4917589;29;20067;-71
2022/08/04 03:43:13;;;;;;;22.80;14.13;;;18.60;99.90;;;;;;4919215;29;20064;-71
2022/08/04 03:46:14;;;;;;;25.55;14.52;;;18.60;99.90;;;;;;4928218;29;20131;-71
2022/08/04 03:49:08;;;;;;;21.17;14.23;;;18.60;99.90;;;;;;4932987;29;20044;-71
2022/08/04 03:55:03;;;;;;;24.90;13.20;;;18.50;99.90;;;;;;4936500;29;20055;-69
2022/08/04 03:58:09;;;;;;;14.68;11.75;;;18.50;99.90;;;;;;4932903;29;20090;-69
2022/08/04 04:01:06;;;;;;;17.92;12.32;;;18.50;99.90;;;;;;4938586;29;20058;-70
2022/08/04 04:03:52;;;;;;;16.05;12.75;;;18.50;99.90;;;;;;4928814;29;20564;-69
2022/08/04 04:06:34;;;;;;;21.08;13.93;;;18.50;99.90;;;;;;4931906;29;20054;-68
2022/08/04 04:09:32;;;;;;;20.77;13.18;;;18.50;99.90;;;;;;4931494;29;20058;-69
2022/08/04 04:12:13;;;;;;;17.73;13.82;;;18.60;99.90;;;;;;4913903;29;20048;-69
2022/08/04 04:14:48;;;;;;;22.55;14.13;;;18.50;99.90;;;;;;4934411;29;20055;-69
2022/08/04 04:17:21;;;;;;;23.90;14.13;;;18.60;99.90;;;;;;4926315;29;20086;-69
2022/08/04 04:19:49;;;;;;;19.60;12.40;;;18.60;99.90;;;;;;4935758;29;20082;-69
2022/08/04 04:22:33;;;;;;;26.30;12.80;;;18.70;99.90;;;;;;4940690;29;20493;-69
2022/08/04 04:25:05;;;;;;;26.17;13.02;;;18.70;99.90;;;;;;4932901;29;20244;-69
2022/08/04 04:27:43;;;;;;;20.33;12.07;;;18.70;99.90;;;;;;4912151;29;20060;-69
2022/08/04 04:30:17;;;;;;;14.23;10.70;;;18.70;99.90;;;;;;4900937;29;20056;-69
2022/08/04 04:32:51;;;;;;;16.60;10.60;;;18.70;99.90;;;;;;4914954;29;20075;-69
2022/08/04 04:35:51;;;;;;;16.48;10.60;;;18.60;99.90;;;;;;4901662;29;20080;-69
2022/08/04 04:38:38;;;;;;;16.65;10.52;;;18.60;99.90;;;;;;4914161;29;20111;-70
2022/08/04 04:41:30;;;;;;;16.15;11.25;;;18.60;99.90;;;;;;4906020;29;20060;-68
2022/08/04 04:44:28;;;;;;;27.55;10.52;;;18.50;99.90;;;;;;4913012;29;20132;-68
2022/08/04 04:47:30;;;;;;;21.90;12.50;;;18.50;99.90;;;;;;4915510;29;20110;-68
2022/08/04 04:50:07;;;;;;;18.67;10.55;;;18.50;99.90;;;;;;4909917;29;20040;-69
2022/08/04 04:52:53;;;;;;;14.13;11.68;;;18.40;99.90;;;;;;4904269;29;20043;-69
2022/08/04 04:55:27;;;;;;;23.88;11.45;;;18.50;99.90;;;;;;4913243;29;20036;-69
2022/08/04 04:57:58;;;;;;;19.50;12.95;;;18.50;99.90;;;;;;4913078;29;20063;-69
2022/08/04 05:00:45;;;;;;;21.35;13.90;;;18.50;99.90;;;;;;4914396;29;20135;-69
2022/08/04 05:03:26;;;;;;;18.17;12.45;;;18.60;99.90;;;;;;4922160;29;20052;-69
2022/08/04 05:05:59;;;;;;;18.45;12.75;;;18.60;99.90;;;;;;4911968;29;20055;-69
2022/08/04 05:08:46;;;;;;;17.02;11.35;;;18.70;99.90;;;;;;4914045;29;20087;-70
2022/08/04 05:11:29;;;;;;;19.70;11.90;;;18.70;99.90;;;;;;4904271;29;20069;-70
2022/08/04 05:14:02;;;;;;;21.05;12.07;;;18.80;99.90;;;;;;4921851;29;20090;-68
2022/08/04 05:16:43;;;;;;;22.58;12.95;;;18.80;99.90;;;;;;4911062;29;20059;-69
2022/08/04 05:19:11;;;;;;;16.13;12.27;;;18.90;99.90;;;;;;4911463;29;20417;-70
2022/08/04 05:21:42;;;;;;;20.35;13.45;;;19.00;99.90;;;;;;4910368;29;20071;-70
2022/08/04 05:24:10;;;;;;;24.38;14.98;;;19.00;99.90;;;;;;4912140;29;20052;-70
2022/08/04 05:26:39;;;;;;;;;;;19.10;99.90;;;;;;4913289;29;20040;-69
2022/08/04 05:29:15;;;;;;;22.35;15.95;;;19.10;99.90;;;;;;4930030;29;20002;-69
2022/08/04 05:31:50;;;;;;;26.90;14.77;;;19.20;99.90;;;;;;4915375;29;20085;-70
2022/08/04 05:34:26;;;;;;;23.80;15.48;;;19.30;99.90;;;;;;4933233;29;20040;-69
2022/08/04 05:36:58;;;;;;;18.20;12.13;;;19.40;99.90;;;;;;4912121;29;20466;-70
2022/08/04 05:39:28;;;;;;;21.08;12.93;;;19.40;99.90;;;;;;4931152;29;20485;-69
2022/08/04 05:41:57;;;;;;;21.50;12.40;;;19.50;99.90;;;;;;4932171;29;20047;-69
2022/08/04 05:44:25;;;;;;;20.92;12.70;;;19.50;99.90;;;;;;4931639;29;20110;-70
2022/08/04 05:46:56;;;;;;;22.15;11.90;;;19.60;99.90;;;;;;4915881;29;20057;-70
2022/08/04 05:49:23;;;;;;;14.73;11.23;;;19.60;99.90;;;;;;4933331;29;20460;-69
2022/08/04 05:51:51;;;;;;;18.42;11.90;;;19.60;99.90;;;;;;4929359;29;20051;-70
2022/08/04 05:54:17;;;;;;;14.65;10.85;;;19.70;99.90;;;;;;4934594;29;20047;-70
2022/08/04 05:56:44;;;;;;;17.48;11.85;;;19.70;99.90;;;;;;4916676;29;20047;-69
2022/08/04 05:59:10;;;;;;;20.45;11.20;;;19.80;99.90;;;;;;4933103;29;20051;-68
2022/08/04 06:01:37;;;;;;;30.70;12.77;;;19.80;99.90;;;;;;4932835;29;20052;-69
2022/08/04 06:04:05;;;;;;;19.92;12.15;;;19.80;99.90;;;;;;4929439;29;20091;-69
2022/08/04 06:06:31;;;;;;;21.63;12.13;;;19.90;99.90;;;;;;4929764;29;20036;-70
2022/08/04 06:08:57;;;;;;;29.75;11.73;;;20.00;99.90;;;;;;4897271;29;20047;-69
2022/08/04 06:11:26;;;;;;;22.40;12.40;;;20.00;99.90;;;;;;4933778;29;20055;-69
2022/08/04 06:14:02;;;;;;;16.63;10.68;;;20.10;99.90;;;;;;4929940;29;20055;-69
2022/08/04 06:16:35;;;;;;;20.15;11.05;;;20.10;99.90;;;;;;4930335;29;20666;-69
2022/08/04 06:19:07;;;;;;;17.02;11.07;;;20.20;99.90;;;;;;4930528;29;20063;-69
2022/08/04 06:21:36;;;;;;;21.20;12.05;;;20.30;99.90;;;;;;4941454;29;20047;-69
2022/08/04 06:24:06;;;;;;;13.07;10.05;;;20.30;99.90;;;;;;4911264;29;20075;-69
2022/08/04 06:26:34;;;;;;;27.83;11.90;;;20.40;99.90;;;;;;4933137;29;20171;-75
2022/08/04 06:29:02;;;;;;;16.85;10.80;;;20.50;99.90;;;;;;4917915;29;20063;-75
2022/08/04 06:31:41;;;;;;;18.83;10.35;;;20.50;99.90;;;;;;4919930;29;20728;-75
2022/08/04 06:34:09;;;;;;;18.88;10.40;;;20.60;99.90;;;;;;4915269;29;20051;-76
2022/08/04 06:36:36;;;;;;;14.48;9.73;;;20.70;99.90;;;;;;4918939;29;20087;-75
2022/08/04 06:39:04;;;;;;;16.98;9.13;;;20.80;99.90;;;;;;4896128;29;20409;-75
2022/08/04 06:41:31;;;;;;;24.00;12.70;;;20.90;99.90;;;;;;4912774;29;20470;-75
2022/08/04 06:44:03;;;;;;;23.42;11.38;;;21.00;99.90;;;;;;4897703;29;20409;-76
2022/08/04 06:46:30;;;;;;;19.58;10.38;;;21.20;99.90;;;;;;4929149;29;20103;-76
2022/08/04 06:48:57;;;;;;;17.40;10.23;;;21.20;99.90;;;;;;4929364;29;20048;-76
2022/08/04 06:51:23;;;;;;;30.50;11.70;;;21.30;99.90;;;;;;4928039;29;20043;-75
2022/08/04 06:53:50;;;;;;;13.52;9.15;;;21.40;99.90;;;;;;4914189;29;20051;-75
2022/08/04 06:56:17;;;;;;;15.98;9.60;;;21.60;99.90;;;;;;4932562;29;20573;-76
2022/08/04 06:58:45;;;;;;;15.73;9.95;;;21.70;99.90;;;;;;4915743;29;20035;-76
2022/08/04 07:01:13;;;;;;;18.35;10.05;;;21.90;99.90;;;;;;4913550;29;20091;-75
2022/08/04 07:03:40;;;;;;;15.65;9.23;;;22.10;99.90;;;;;;4913344;29;20055;-76
2022/08/04 07:06:06;;;;;;;22.15;10.10;;;22.40;99.90;;;;;;4913651;29;20122;-75
2022/08/04 07:08:34;;;;;;;15.88;9.35;;;22.60;99.90;;;;;;4913175;29;20425;-76
2022/08/04 07:11:00;;;;;;;;;;;22.90;99.90;;;;;;4914373;29;20126;-76
2022/08/04 07:13:27;;;;;;;17.13;9.87;;;23.20;99.90;;;;;;4913800;29;19969;-76
2022/08/04 07:15:54;;;;;;;18.63;9.43;;;23.40;99.90;;;;;;4912877;29;20058;-75
2022/08/04 07:18:20;;;;;;;19.25;7.93;;;23.70;99.90;;;;;;4923946;29;20047;-75
2022/08/04 07:20:47;;;;;;;11.60;7.32;;;23.90;99.90;;;;;;4915784;29;20048;-75
2022/08/04 07:23:18;;;;;;;10.95;8.55;;;24.00;99.90;;;;;;4913524;29;20054;-75
2022/08/04 07:25:57;;;;;;;17.23;7.75;;;24.10;99.90;;;;;;4918796;29;20171;-75
2022/08/04 07:28:25;;;;;;;13.13;8.43;;;24.40;99.90;;;;;;4930215;29;20060;-75
2022/08/04 07:30:53;;;;;;;20.48;9.23;;;24.60;99.90;;;;;;4912638;29;20058;-76
2022/08/04 07:33:19;;;;;;;;;;;24.80;99.90;;;;;;4921419;29;20058;-75
2022/08/04 07:35:48;;;;;;;14.23;9.05;;;24.90;99.90;;;;;;4921203;29;19923;-74
2022/08/04 07:38:14;;;;;;;23.60;7.43;;;25.00;99.90;;;;;;4908669;29;20048;-74
2022/08/04 07:40:40;;;;;;;13.15;7.07;;;25.20;99.90;;;;;;4912148;29;20066;-75
2022/08/04 07:43:07;;;;;;;17.70;7.32;;;25.30;99.90;;;;;;4913296;29;20113;-76
2022/08/04 07:45:33;;;;;;;13.20;6.80;;;25.40;99.90;;;;;;4933042;29;20079;-76
2022/08/04 07:47:59;;;;;;;13.98;7.10;;;25.60;99.90;;;;;;4896285;29;20832;-72
2022/08/04 07:50:27;;;;;;;15.65;6.55;;;25.70;99.90;;;;;;4910230;29;20059;-71
2022/08/04 07:52:53;;;;;;;9.50;6.82;;;25.90;99.90;;;;;;4930066;29;20644;-71
2022/08/04 07:55:20;;;;;;;13.80;6.65;;;26.10;99.90;;;;;;4921422;29;20058;-70
2022/08/04 07:57:46;;;;;;;21.55;8.07;;;26.10;99.90;;;;;;4933216;29;20119;-70
2022/08/04 08:00:15;;;;;;;14.13;7.30;;;26.20;99.90;;;;;;4932211;29;20547;-71
2022/08/04 08:02:44;;;;;;;16.17;6.82;;;26.30;99.90;;;;;;4929962;29;20119;-71
2022/08/04 08:05:13;;;;;;;18.95;7.18;;;26.30;99.90;;;;;;4931749;29;20051;-71
2022/08/04 08:07:39;;;;;;;13.93;7.78;;;26.40;99.90;;;;;;4934682;29;20039;-71
2022/08/04 08:10:11;;;;;;;11.90;6.10;;;26.60;99.90;;;;;;4929696;29;20058;-71
2022/08/04 08:12:37;;;;;;;11.80;6.20;;;26.60;99.90;;;;;;4928469;29;20090;-71
2022/08/04 08:15:05;;;;;;;10.98;6.00;;;26.80;99.90;;;;;;4928491;29;20065;-71
2022/08/04 08:17:31;;;;;;;10.38;5.05;;;27.00;99.90;;;;;;4932470;29;20032;-71
2022/08/04 08:19:56;;;;;;;14.00;6.00;;;27.00;99.90;;;;;;4928804;29;20086;-71
2022/08/04 08:22:22;;;;;;;10.57;6.22;;;27.10;99.90;;;;;;4913927;29;20497;-71
2022/08/04 08:24:48;;;;;;;10.48;5.90;;;27.10;99.90;;;;;;4914626;29;20047;-70
2022/08/04 08:27:14;;;;;;;18.23;6.45;;;27.10;99.90;;;;;;4932604;29;20075;-71
2022/08/04 08:29:41;;;;;;;10.98;5.90;;;27.30;99.90;;;;;;4932927;29;20055;-71
2022/08/04 08:32:12;;;;;;;12.27;7.25;;;27.30;99.90;;;;;;4935012;29;20139;-71
2022/08/04 08:34:40;;;;;;;11.15;5.32;;;27.50;99.90;;;;;;4933154;29;20051;-71
2022/08/04 08:37:12;;;;;;;;;;;27.60;99.90;;;;;;4931836;29;20040;-71
2022/08/04 08:40:14;;;;;;;19.23;4.72;;;27.80;99.90;;;;;;4933089;29;19962;-71
2022/08/04 08:43:04;;;;;;;14.57;5.90;;;28.00;99.90;;;;;;4933052;29;20044;-71
2022/08/04 08:45:53;;;;;;;17.67;6.32;;;28.20;99.90;;;;;;4916438;29;20055;-69
2022/08/04 08:48:31;;;;;;;10.10;4.95;;;28.30;99.90;;;;;;4932267;29;20051;-70
2022/08/04 08:51:10;;;;;;;8.30;5.20;;;28.30;99.90;;;;;;4925248;29;20184;-70
2022/08/04 08:53:47;;;;;;;14.80;5.78;;;28.40;99.90;;;;;;4931373;29;20059;-70
2022/08/04 08:56:31;;;;;;;10.57;4.97;;;28.40;99.90;;;;;;4928112;29;20075;-70
2022/08/04 08:59:17;;;;;;;7.65;5.40;;;28.40;99.90;;;;;;4932224;29;20098;-70
2022/08/04 09:01:52;;;;;;;10.43;5.20;;;28.40;99.90;;;;;;4928988;29;20036;-71
2022/08/04 09:04:23;;;;;;;12.32;5.53;;;28.40;98.50;;;;;;4928697;29;20150;-70
2022/08/04 09:07:26;;;;;;;20.63;6.22;;;28.50;99.20;;;;;;4932303;29;20051;-70
2022/08/04 09:10:25;;;;;;;10.82;5.60;;;28.60;95.40;;;;;;4923367;29;20051;-70
2022/08/04 09:13:14;;;;;;;9.23;5.00;;;28.80;96.70;;;;;;4914684;29;20082;-69
2022/08/04 09:16:12;;;;;;;10.55;4.95;;;28.90;97.50;;;;;;4927423;29;20039;-69
2022/08/04 09:18:46;;;;;;;8.80;4.57;;;29.10;95.00;;;;;;4927747;29;20489;-70
2022/08/04 09:21:27;;;;;;;6.45;5.00;;;29.30;95.30;;;;;;4923782;29;20052;-71
2022/08/04 09:24:02;;;;;;;9.00;4.95;;;29.50;91.70;;;;;;4931501;29;20079;-71
2022/08/04 09:27:08;;;;;;;9.70;6.13;;;29.80;93.80;;;;;;4930539;29;20059;-71
2022/08/04 09:30:09;;;;;;;10.93;5.07;;;30.10;90.30;;;;;;4930325;29;20127;-70
2022/08/04 09:32:38;;;;;;;13.73;5.43;;;30.20;86.30;;;;;;4935662;29;20047;-70
2022/08/04 09:35:25;;;;;;;11.20;5.13;;;30.30;87.90;;;;;;4931507;29;20111;-71
2022/08/04 09:38:37;;;;;;;12.10;5.50;;;30.50;81.30;;;;;;4914839;29;20048;-71
2022/08/04 09:41:29;;;;;;;11.57;5.65;;;30.70;74.50;;;;;;4918426;29;20063;-71
2022/08/04 09:43:57;;;;;;;11.55;5.68;;;30.80;75.80;;;;;;4931831;29;20053;-71
2022/08/04 09:46:39;;;;;;;13.10;4.90;;;30.80;74.60;;;;;;4930616;29;20051;-70
2022/08/04 09:49:27;;;;;;;9.18;5.75;;;30.70;74.20;;;;;;4929618;29;20131;-70
2022/08/04 09:52:00;;;;;;;13.70;5.93;;;30.70;70.50;;;;;;4914058;29;20051;-71
2022/08/04 09:54:42;;;;;;;10.65;5.38;;;30.80;73.10;;;;;;4929225;29;20063;-71
2022/08/04 09:57:35;;;;;;;18.33;5.57;;;30.90;73.10;;;;;;4926513;29;20123;-71
2022/08/04 10:00:07;;;;;;;9.90;5.18;;;31.00;73.70;;;;;;4926997;29;20044;-71
2022/08/04 10:02:37;;;;;;;15.30;5.43;;;31.10;71.80;;;;;;4926147;29;20048;-72
2022/08/04 10:05:10;;;;;;;10.88;5.53;;;31.20;71.60;;;;;;4919484;29;20675;-72
2022/08/04 10:07:58;;;;;;;8.43;5.05;;;31.30;73.10;;;;;;4928440;29;20421;-71
2022/08/04 10:10:35;;;;;;;15.38;5.95;;;31.30;71.40;;;;;;4930894;29;20043;-71
2022/08/04 10:13:04;;;;;;;9.73;5.13;;;31.20;67.10;;;;;;4931494;29;20063;-72
2022/08/04 10:15:38;;;;;;;11.07;5.80;;;31.20;69.00;;;;;;4931184;29;20516;-72
2022/08/04 10:18:30;;;;;;;10.93;4.28;;;31.20;67.20;;;;;;4928932;29;20082;-71
2022/08/04 10:21:18;;;;;;;8.90;4.95;;;31.10;68.20;;;;;;4907749;29;20056;-72
2022/08/04 10:23:53;;;;;;;9.52;5.18;;;30.90;63.90;;;;;;4913523;29;20103;-71
2022/08/04 10:26:28;;;;;;;7.05;4.93;;;30.70;67.60;;;;;;4930831;29;20059;-72
2022/08/04 10:28:59;;;;;;;9.40;5.72;;;30.70;68.30;;;;;;4923503;29;20055;-71
2022/08/04 10:31:41;;;;;;;7.95;4.70;;;30.70;68.80;;;;;;4930575;29;20051;-71
2022/08/04 10:34:13;;;;;;;18.70;5.28;;;30.70;67.20;;;;;;4930128;29;20043;-72
2022/08/04 10:36:50;;;;;;;14.23;5.35;;;30.60;69.10;;;;;;4933329;29;20055;-71
2022/08/04 10:39:24;;;;;;;8.27;5.53;;;30.70;71.10;;;;;;4930370;29;20047;-72
2022/08/04 10:42:13;;;;;;;8.32;6.53;;;30.70;74.50;;;;;;4932431;29;20048;-72
2022/08/04 10:44:57;;;;;;;10.30;6.63;;;30.70;78.70;;;;;;4922104;29;20070;-73
2022/08/04 10:47:29;;;;;;;7.75;6.07;;;30.70;80.60;;;;;;4934597;29;20130;-71
2022/08/04 10:49:58;;;;;;;10.35;6.25;;;30.70;80.90;;;;;;4930411;29;20055;-70
2022/08/04 10:52:42;;;;;;;9.27;6.18;;;30.80;82.30;;;;;;4928072;29;20036;-70
2022/08/04 10:55:17;;;;;;;11.20;5.80;;;30.90;80.60;;;;;;4930275;29;20446;-71
2022/08/04 10:57:56;;;;;;;9.63;6.13;;;30.90;80.30;;;;;;4914579;29;20056;-72
2022/08/04 11:00:26;;;;;;;13.50;6.05;;;30.90;80.50;;;;;;4921763;29;20048;-71
2022/08/04 11:02:52;;;;;;;11.75;6.78;;;30.90;80.40;;;;;;4929498;29;20059;-71
2022/08/04 11:05:47;;;;;;;10.48;6.00;;;30.80;80.70;;;;;;4913266;29;20043;-72
2022/08/04 11:08:24;;;;;;;9.50;5.95;;;30.90;81.90;;;;;;4924479;29;20055;-72
2022/08/04 11:11:30;;;;;;;7.50;5.55;;;31.00;82.00;;;;;;4924731;29;20048;-72
2022/08/04 11:14:02;;;;;;;11.02;5.32;;;31.00;80.40;;;;;;4926358;29;20119;-72
2022/08/04 11:16:36;;;;;;;10.35;4.88;;;31.00;80.00;;;;;;4930345;29;20058;-71
2022/08/04 11:19:27;;;;;;;7.13;4.43;;;31.00;77.20;;;;;;4939936;29;20125;-71
2022/08/04 11:22:04;;;;;;;7.68;5.57;;;31.10;80.00;;;;;;4919865;29;20070;-71
2022/08/04 11:24:54;;;;;;;12.68;5.15;;;31.20;77.50;;;;;;4930596;29;20036;-71
2022/08/04 11:27:28;;;;;;;13.32;5.30;;;31.40;73.90;;;;;;4926520;29;20224;-71
2022/08/04 11:30:05;;;;;;;9.90;4.68;;;31.20;71.60;;;;;;4913885;29;20048;-71
2022/08/04 11:32:53;;;;;;;8.90;4.97;;;31.20;70.90;;;;;;4926693;29;20068;-71
2022/08/04 11:35:30;;;;;;;16.42;5.03;;;31.20;72.00;;;;;;4929256;29;20047;-71
2022/08/04 11:38:29;;;;;;;11.48;4.60;;;31.40;70.30;;;;;;4930559;29;20044;-71
2022/08/04 11:40:59;;;;;;;11.40;5.13;;;31.20;70.10;;;;;;4918912;29;20063;-69
2022/08/04 11:43:57;;;;;;;8.57;5.10;;;31.20;71.00;;;;;;4915104;29;20052;-69
2022/08/04 11:46:42;;;;;;;7.63;4.80;;;31.10;69.30;;;;;;4912768;29;20059;-69
2022/08/04 11:49:40;;;;;;;11.63;4.20;;;31.00;71.50;;;;;;4925681;29;20174;-68
2022/08/04 11:52:11;;;;;;;10.05;4.65;;;30.90;70.30;;;;;;4930736;29;20083;-69
2022/08/04 11:54:39;;;;;;;9.15;3.67;;;31.00;72.30;;;;;;4916746;29;20102;-69
2022/08/04 11:57:05;;;;;;;6.80;4.20;;;30.90;73.00;;;;;;4933984;29;20079;-69
2022/08/04 11:59:34;;;;;;;6.05;4.00;;;30.90;73.60;;;;;;4917025;29;20535;-71
2022/08/04 12:02:21;;;;;;;9.48;3.85;;;30.80;71.80;;;;;;4934198;29;20097;-69
2022/08/04 12:04:58;;;;;;;4.97;3.50;;;30.50;69.40;;;;;;4919537;29;20055;-69
2022/08/04 12:07:54;;;;;;;10.23;3.03;;;30.30;72.00;;;;;;4931834;29;20043;-69
2022/08/04 12:10:41;;;;;;;16.02;4.32;;;30.20;70.30;;;;;;4931094;29;20099;-71
2022/08/04 12:13:30;;;;;;;9.43;3.60;;;29.80;70.80;;;;;;4924915;29;20040;-71
2022/08/04 12:16:31;;;;;;;8.30;3.42;;;29.70;73.40;;;;;;4932737;29;20039;-72
2022/08/04 12:19:05;;;;;;;13.50;3.95;;;29.60;74.80;;;;;;4927545;29;20063;-72
2022/08/04 12:21:38;;;;;;;7.82;3.75;;;29.40;77.30;;;;;;4933732;29;20035;-72
2022/08/04 12:24:30;;;;;;;9.95;3.90;;;29.40;78.60;;;;;;4929590;29;20060;-72
2022/08/04 12:26:58;;;;;;;9.70;3.95;;;29.50;82.40;;;;;;4926387;29;20059;-72
2022/08/04 12:29:26;;;;;;;14.27;4.25;;;29.30;84.00;;;;;;4932536;29;20056;-70
2022/08/04 12:32:14;;;;;;;11.13;3.58;;;29.20;87.10;;;;;;4913270;29;20442;-71
2022/08/04 12:34:58;;;;;;;9.75;3.75;;;29.00;90.20;;;;;;4933252;29;20050;-72
2022/08/04 12:37:45;;;;;;;8.32;3.45;;;28.90;90.10;;;;;;4934247;29;20047;-71
2022/08/04 12:40:17;;;;;;;15.23;4.45;;;28.80;90.50;;;;;;4933221;29;20055;-71
2022/08/04 12:42:57;;;;;;;2.95;2.50;;;28.50;90.50;;;;;;4916533;29;20054;-71
2022/08/04 12:45:24;;;;;;;5.63;3.25;;;28.40;91.40;;;;;;4934762;29;20192;-72
2022/08/04 12:47:52;;;;;;;7.35;3.70;;;28.20;92.60;;;;;;4933728;29;20127;-71
2022/08/04 12:50:19;;;;;;;9.13;3.05;;;28.10;93.70;;;;;;4932552;29;20531;-71
2022/08/04 12:52:51;;;;;;;5.22;3.95;;;28.00;93.50;;;;;;4941802;29;20131;-71
2022/08/04 12:55:21;;;;;;;4.40;2.72;;;27.80;93.80;;;;;;4933420;29;20738;-72
2022/08/04 12:57:49;;;;;;;4.90;3.40;;;27.80;94.60;;;;;;4932869;29;20514;-71
2022/08/04 13:00:55;;;;;;;5.45;3.58;;;27.60;99.90;;;;;;4932423;29;20052;-73
2022/08/04 13:03:26;;;;;;;6.00;3.20;;;27.50;99.90;;;;;;4927770;29;20062;-72
2022/08/04 13:05:54;;;;;;;5.40;3.08;;;27.30;99.90;;;;;;4933503;29;20056;-70
2022/08/04 13:08:21;;;;;;;5.50;2.85;;;27.10;99.90;;;;;;4922377;29;20401;-71
2022/08/04 13:10:51;;;;;;;3.83;2.78;;;27.00;99.90;;;;;;4931692;29;20036;-71
2022/08/04 13:13:25;;;;;;;11.20;2.90;;;26.90;99.90;;;;;;4932213;29;20043;-71
2022/08/04 13:16:00;;;;;;;4.57;3.33;;;26.90;99.90;;;;;;4937415;29;20069;-72
2022/08/04 13:18:29;;;;;;;5.57;3.38;;;26.90;99.90;;;;;;4924880;29;20054;-71
2022/08/04 13:20:56;;;;;;;7.07;3.25;;;26.80;99.90;;;;;;4923860;29;20616;-71
2022/08/04 13:23:24;;;;;;;;;;;26.90;99.90;;;;;;4930920;29;20043;-69
2022/08/04 13:25:51;;;;;;;6.80;3.20;;;26.90;99.90;;;;;;4932550;29;19931;-69